createdAt,value
2019-03-28T00:00:35.192Z,0.00
2019-03-28T00:01:35.186Z,0.00
2019-03-28T00:02:35.195Z,0.00
2019-03-28T00:03:35.177Z,0.00
2019-03-28T00:04:35.174Z,0.00
2019-03-28T00:05:35.167Z,0.00
2019-03-28T00:06:35.165Z,0.00
2019-03-28T00:07:35.161Z,0.00
2019-03-28T00:08:35.156Z,0.00
2019-03-28T00:09:35.151Z,0.00
2019-03-28T00:10:35.297Z,0.00
2019-03-28T00:11:35.140Z,0.00
2019-03-28T00:12:35.138Z,0.00
2019-03-28T00:13:35.133Z,0.00
2019-03-28T00:14:35.129Z,0.00
2019-03-28T00:15:35.124Z,0.00
2019-03-28T00:16:35.119Z,0.00
2019-03-28T00:17:35.114Z,0.00
2019-03-28T00:18:35.110Z,0.00
2019-03-28T00:19:35.106Z,0.00
2019-03-28T00:20:35.387Z,0.00
2019-03-28T00:21:35.095Z,0.00
2019-03-28T00:22:35.091Z,0.00
2019-03-28T00:23:35.085Z,0.00
2019-03-28T00:24:35.082Z,0.00
2019-03-28T00:25:35.078Z,0.00
2019-03-28T00:26:35.072Z,0.00
2019-03-28T00:27:35.071Z,0.00
2019-03-28T00:28:35.065Z,0.00
2019-03-28T00:29:35.060Z,0.00
2019-03-28T00:30:35.057Z,0.00
2019-03-28T00:31:35.256Z,0.00
2019-03-28T00:32:35.048Z,0.00
2019-03-28T00:33:35.041Z,0.00
2019-03-28T00:34:35.228Z,0.00
2019-03-28T00:35:35.032Z,0.00
2019-03-28T00:36:35.029Z,0.00
2019-03-28T00:37:35.275Z,0.00
2019-03-28T00:38:35.021Z,0.00
2019-03-28T00:39:35.018Z,0.00
2019-03-28T00:40:35.011Z,0.00
2019-03-28T00:41:35.005Z,0.00
2019-03-28T00:42:35.149Z,0.00
2019-03-28T00:43:34.998Z,0.00
2019-03-28T00:44:34.992Z,0.00
2019-03-28T00:45:34.987Z,0.00
2019-03-28T00:46:34.984Z,0.00
2019-03-28T00:47:34.978Z,0.00
2019-03-28T00:48:34.978Z,0.00
2019-03-28T00:49:34.968Z,0.00
2019-03-28T00:50:34.969Z,0.00
2019-03-28T00:51:34.963Z,0.00
2019-03-28T00:52:34.956Z,0.00
2019-03-28T00:53:34.951Z,0.00
2019-03-28T00:54:34.947Z,0.00
2019-03-28T00:55:34.942Z,0.00
2019-03-28T00:56:46.420Z,0.00
2019-03-28T00:57:34.934Z,0.00
2019-03-28T00:58:34.931Z,0.00
2019-03-28T00:59:34.924Z,0.00
2019-03-28T01:00:34.922Z,0.00
2019-03-28T01:01:34.915Z,0.00
2019-03-28T01:02:34.912Z,0.00
2019-03-28T01:03:34.907Z,0.00
2019-03-28T01:04:34.903Z,0.00
2019-03-28T01:05:34.897Z,0.00
2019-03-28T01:06:34.892Z,0.00
2019-03-28T01:07:34.893Z,0.00
2019-03-28T01:08:34.882Z,0.00
2019-03-28T01:09:34.877Z,0.00
2019-03-28T01:10:34.872Z,0.00
2019-03-28T01:11:34.870Z,0.00
2019-03-28T01:12:34.865Z,0.00
2019-03-28T01:13:34.860Z,0.00
2019-03-28T01:14:34.856Z,0.00
2019-03-28T01:15:34.852Z,0.00
2019-03-28T01:16:34.845Z,0.00
2019-03-28T01:17:34.845Z,0.00
2019-03-28T01:18:34.835Z,0.00
2019-03-28T01:19:35.153Z,0.00
2019-03-28T01:20:34.827Z,0.00
2019-03-28T01:21:34.822Z,0.00
2019-03-28T01:22:34.817Z,0.00
2019-03-28T01:23:34.813Z,0.00
2019-03-28T01:24:34.808Z,0.00
2019-03-28T01:25:34.803Z,0.00
2019-03-28T01:26:34.799Z,0.00
2019-03-28T01:27:34.795Z,0.00
2019-03-28T01:28:34.789Z,0.00
2019-03-28T01:29:34.785Z,0.00
2019-03-28T01:30:34.779Z,0.00
2019-03-28T01:31:34.775Z,0.00
2019-03-28T01:32:34.771Z,0.00
2019-03-28T01:33:34.764Z,0.00
2019-03-28T01:34:34.760Z,0.00
2019-03-28T01:35:34.755Z,0.00
2019-03-28T01:36:34.750Z,0.00
2019-03-28T01:37:34.744Z,0.00
2019-03-28T01:38:34.741Z,0.00
2019-03-28T01:39:35.207Z,0.00
2019-03-28T01:40:34.732Z,0.00
2019-03-28T01:41:34.727Z,0.00
2019-03-28T01:42:34.724Z,0.00
2019-03-28T01:43:34.717Z,0.00
2019-03-28T01:44:34.714Z,0.00
2019-03-28T01:45:34.710Z,0.00
2019-03-28T01:46:34.704Z,0.00
2019-03-28T01:47:34.699Z,0.00
2019-03-28T01:48:34.695Z,0.00
2019-03-28T01:49:34.689Z,0.00
2019-03-28T01:50:34.686Z,0.00
2019-03-28T01:51:34.681Z,0.00
2019-03-28T01:52:34.677Z,0.00
2019-03-28T01:53:34.669Z,0.00
2019-03-28T01:54:34.672Z,0.00
2019-03-28T01:55:34.688Z,0.00
2019-03-28T01:56:34.657Z,0.00
2019-03-28T01:57:34.651Z,0.00
2019-03-28T01:58:34.647Z,0.00
2019-03-28T01:59:34.642Z,0.00
2019-03-28T02:00:34.640Z,0.00
2019-03-28T02:01:34.632Z,0.00
2019-03-28T02:02:34.627Z,0.00
2019-03-28T02:03:34.622Z,0.00
2019-03-28T02:04:34.621Z,0.00
2019-03-28T02:05:34.614Z,0.00
2019-03-28T02:06:34.608Z,0.00
2019-03-28T02:07:34.606Z,0.00
2019-03-28T02:08:34.599Z,0.00
2019-03-28T02:09:34.592Z,0.00
2019-03-28T02:10:34.589Z,0.00
2019-03-28T02:11:34.584Z,0.00
2019-03-28T02:12:34.580Z,0.00
2019-03-28T02:13:34.574Z,0.00
2019-03-28T02:14:34.574Z,0.00
2019-03-28T02:15:34.569Z,0.00
2019-03-28T02:16:34.564Z,0.00
2019-03-28T02:17:34.555Z,0.00
2019-03-28T02:18:34.552Z,0.00
2019-03-28T02:19:34.546Z,0.00
2019-03-28T02:20:34.546Z,0.00
2019-03-28T02:21:34.536Z,0.00
2019-03-28T02:22:34.531Z,0.00
2019-03-28T02:23:34.530Z,0.00
2019-03-28T02:24:34.523Z,0.00
2019-03-28T02:25:34.518Z,0.00
2019-03-28T02:26:34.513Z,0.00
2019-03-28T02:27:34.510Z,0.00
2019-03-28T02:28:34.504Z,0.00
2019-03-28T02:29:34.499Z,0.00
2019-03-28T02:30:34.501Z,0.00
2019-03-28T02:31:34.489Z,0.00
2019-03-28T02:32:34.491Z,0.00
2019-03-28T02:33:34.479Z,0.00
2019-03-28T02:34:34.502Z,0.00
2019-03-28T02:35:34.510Z,0.00
2019-03-28T02:36:34.466Z,0.00
2019-03-28T02:37:34.464Z,0.00
2019-03-28T02:38:34.467Z,0.00
2019-03-28T02:39:34.455Z,0.00
2019-03-28T02:40:34.446Z,0.00
2019-03-28T02:41:34.945Z,0.00
2019-03-28T02:42:34.439Z,0.00
2019-03-28T02:43:34.435Z,0.00
2019-03-28T02:44:34.428Z,0.00
2019-03-28T02:45:34.426Z,0.00
2019-03-28T02:46:34.417Z,0.00
2019-03-28T02:47:35.739Z,0.00
2019-03-28T02:48:34.406Z,0.00
2019-03-28T02:49:34.403Z,0.00
2019-03-28T02:50:34.401Z,0.00
2019-03-28T02:51:34.395Z,0.00
2019-03-28T02:52:34.389Z,0.00
2019-03-28T02:53:34.386Z,0.00
2019-03-28T02:54:34.383Z,0.00
2019-03-28T02:55:34.379Z,0.00
2019-03-28T02:56:34.369Z,0.00
2019-03-28T02:57:41.564Z,0.00
2019-03-28T02:58:34.360Z,0.00
2019-03-28T02:59:34.354Z,0.00
2019-03-28T03:00:34.351Z,0.00
2019-03-28T03:01:34.345Z,0.00
2019-03-28T03:02:34.341Z,0.00
2019-03-28T03:03:34.334Z,0.00
2019-03-28T03:04:34.334Z,0.00
2019-03-28T03:05:34.330Z,0.00
2019-03-28T03:06:34.321Z,0.00
2019-03-28T03:07:34.325Z,0.00
2019-03-28T03:08:34.313Z,0.00
2019-03-28T03:09:34.306Z,0.00
2019-03-28T03:10:34.305Z,0.00
2019-03-28T03:11:34.949Z,0.00
2019-03-28T03:12:34.297Z,0.00
2019-03-28T03:13:34.289Z,0.00
2019-03-28T03:14:34.284Z,0.00
2019-03-28T03:15:34.279Z,0.00
2019-03-28T03:16:34.276Z,0.00
2019-03-28T03:17:34.269Z,0.00
2019-03-28T03:18:34.265Z,0.00
2019-03-28T03:19:34.260Z,0.00
2019-03-28T03:20:34.257Z,0.00
2019-03-28T03:21:34.328Z,0.00
2019-03-28T03:22:34.246Z,0.00
2019-03-28T03:23:34.242Z,0.00
2019-03-28T03:24:34.245Z,0.00
2019-03-28T03:25:34.231Z,0.00
2019-03-28T03:26:34.233Z,0.00
2019-03-28T03:27:34.222Z,0.00
2019-03-28T03:28:34.220Z,0.00
2019-03-28T03:29:34.213Z,0.00
2019-03-28T03:30:34.215Z,0.00
2019-03-28T03:31:34.207Z,0.00
2019-03-28T03:32:34.197Z,0.00
2019-03-28T03:33:34.267Z,0.00
2019-03-28T03:34:34.200Z,0.00
2019-03-28T03:35:34.182Z,0.00
2019-03-28T03:36:34.181Z,0.00
2019-03-28T03:37:34.176Z,0.00
2019-03-28T03:38:34.168Z,0.00
2019-03-28T03:39:34.166Z,0.00
2019-03-28T03:40:34.159Z,0.00
2019-03-28T03:41:34.154Z,0.00
2019-03-28T03:42:34.149Z,0.00
2019-03-28T03:43:34.145Z,0.00
2019-03-28T03:44:34.139Z,0.00
2019-03-28T03:45:34.133Z,0.00
2019-03-28T03:46:34.129Z,0.00
2019-03-28T03:47:34.123Z,0.00
2019-03-28T03:48:34.121Z,0.00
2019-03-28T03:49:34.114Z,0.00
2019-03-28T03:50:34.110Z,0.00
2019-03-28T03:51:34.107Z,0.00
2019-03-28T03:52:34.101Z,0.00
2019-03-28T03:53:34.096Z,0.00
2019-03-28T03:54:34.090Z,0.00
2019-03-28T03:55:34.086Z,0.00
2019-03-28T03:56:34.084Z,0.00
2019-03-28T03:57:34.074Z,0.00
2019-03-28T03:58:34.071Z,0.00
2019-03-28T03:59:34.066Z,0.00
2019-03-28T04:00:34.060Z,0.00
2019-03-28T04:01:34.056Z,0.00
2019-03-28T04:02:34.051Z,0.00
2019-03-28T04:03:34.047Z,0.00
2019-03-28T04:04:34.046Z,0.00
2019-03-28T04:05:34.041Z,0.00
2019-03-28T04:06:34.074Z,0.00
2019-03-28T04:07:34.029Z,0.00
2019-03-28T04:08:34.025Z,0.00
2019-03-28T04:09:34.015Z,0.00
2019-03-28T04:10:34.010Z,0.00
2019-03-28T04:11:34.009Z,0.00
2019-03-28T04:12:34.010Z,0.00
2019-03-28T04:13:33.998Z,0.00
2019-03-28T04:14:34.000Z,0.00
2019-03-28T04:15:33.991Z,0.00
2019-03-28T04:16:33.984Z,0.00
2019-03-28T04:17:33.976Z,0.00
2019-03-28T04:18:33.973Z,0.00
2019-03-28T04:19:33.966Z,0.00
2019-03-28T04:20:33.961Z,0.00
2019-03-28T04:21:33.967Z,0.00
2019-03-28T04:22:33.951Z,0.00
2019-03-28T04:23:33.948Z,0.00
2019-03-28T04:24:33.945Z,0.00
2019-03-28T04:25:33.959Z,0.00
2019-03-28T04:26:33.931Z,0.00
2019-03-28T04:27:33.926Z,0.00
2019-03-28T04:28:33.923Z,0.00
2019-03-28T04:29:33.917Z,0.00
2019-03-28T04:30:33.912Z,0.00
2019-03-28T04:31:33.910Z,0.00
2019-03-28T04:32:33.915Z,0.00
2019-03-28T04:33:33.900Z,0.00
2019-03-28T04:34:33.894Z,0.00
2019-03-28T04:35:33.888Z,0.00
2019-03-28T04:36:33.884Z,0.00
2019-03-28T04:37:33.878Z,0.00
2019-03-28T04:38:33.872Z,0.00
2019-03-28T04:39:33.881Z,0.00
2019-03-28T04:40:34.432Z,0.00
2019-03-28T04:41:33.857Z,0.00
2019-03-28T04:42:33.852Z,0.00
2019-03-28T04:43:33.848Z,0.00
2019-03-28T04:44:33.844Z,0.00
2019-03-28T04:45:33.838Z,0.00
2019-03-28T04:46:33.835Z,0.00
2019-03-28T04:47:33.830Z,0.00
2019-03-28T04:48:33.825Z,0.00
2019-03-28T04:49:33.819Z,0.00
2019-03-28T04:50:33.814Z,0.00
2019-03-28T04:51:33.809Z,0.00
2019-03-28T04:52:33.804Z,0.00
2019-03-28T04:53:33.800Z,0.00
2019-03-28T04:54:33.793Z,4.00
2019-03-28T04:55:33.790Z,0.00
2019-03-28T04:56:33.784Z,0.00
2019-03-28T04:57:33.779Z,4.00
2019-03-28T04:58:43.938Z,0.00
2019-03-28T04:59:33.772Z,4.00
2019-03-28T05:00:33.775Z,8.00
2019-03-28T05:01:33.759Z,4.00
2019-03-28T05:02:33.753Z,8.00
2019-03-28T05:03:33.751Z,8.00
2019-03-28T05:04:33.750Z,12.00
2019-03-28T05:05:33.738Z,12.00
2019-03-28T05:06:33.736Z,12.00
2019-03-28T05:07:33.730Z,16.00
2019-03-28T05:08:33.731Z,16.00
2019-03-28T05:09:33.721Z,16.00
2019-03-28T05:10:33.715Z,20.00
2019-03-28T05:11:33.711Z,20.00
2019-03-28T05:12:33.705Z,24.00
2019-03-28T05:13:33.702Z,32.00
2019-03-28T05:14:33.695Z,32.00
2019-03-28T05:15:33.692Z,36.00
2019-03-28T05:16:33.691Z,40.00
2019-03-28T05:17:33.682Z,44.00
2019-03-28T05:18:33.677Z,48.00
2019-03-28T05:19:33.673Z,52.00
2019-03-28T05:20:33.667Z,56.00
2019-03-28T05:21:33.664Z,60.00
2019-03-28T05:22:33.659Z,64.00
2019-03-28T05:23:33.653Z,72.00
2019-03-28T05:24:33.649Z,76.00
2019-03-28T05:25:33.642Z,80.00
2019-03-28T05:26:33.638Z,88.00
2019-03-28T05:27:33.676Z,96.00
2019-03-28T05:28:33.629Z,104.00
2019-03-28T05:29:33.623Z,112.00
2019-03-28T05:30:33.618Z,120.00
2019-03-28T05:31:34.310Z,132.00
2019-03-28T05:32:33.607Z,136.00
2019-03-28T05:33:33.606Z,152.00
2019-03-28T05:34:34.356Z,156.00
2019-03-28T05:35:33.594Z,168.00
2019-03-28T05:36:33.590Z,176.00
2019-03-28T05:37:33.590Z,188.00
2019-03-28T05:38:33.580Z,200.00
2019-03-28T05:39:33.575Z,208.00
2019-03-28T05:40:33.570Z,212.00
2019-03-28T05:41:33.567Z,212.00
2019-03-28T05:42:33.559Z,216.00
2019-03-28T05:43:33.553Z,220.00
2019-03-28T05:44:33.550Z,224.00
2019-03-28T05:45:33.545Z,232.00
2019-03-28T05:46:33.608Z,240.00
2019-03-28T05:47:33.536Z,248.00
2019-03-28T05:48:33.533Z,260.00
2019-03-28T05:49:33.525Z,272.00
2019-03-28T05:50:33.521Z,284.00
2019-03-28T05:51:33.516Z,304.00
2019-03-28T05:52:33.512Z,320.00
2019-03-28T05:53:33.507Z,336.00
2019-03-28T05:54:33.500Z,356.00
2019-03-28T05:55:33.495Z,372.00
2019-03-28T05:56:33.491Z,380.00
2019-03-28T05:57:33.486Z,388.00
2019-03-28T05:58:33.482Z,388.00
2019-03-28T05:59:33.476Z,396.00
2019-03-28T06:00:33.473Z,408.00
2019-03-28T06:01:33.466Z,424.00
2019-03-28T06:02:33.470Z,440.00
2019-03-28T06:03:33.458Z,464.00
2019-03-28T06:04:34.354Z,488.00
2019-03-28T06:05:33.456Z,520.00
2019-03-28T06:06:33.443Z,548.00
2019-03-28T06:07:33.440Z,572.00
2019-03-28T06:08:33.434Z,600.00
2019-03-28T06:09:33.428Z,628.00
2019-03-28T06:10:33.422Z,652.00
2019-03-28T06:11:33.420Z,660.00
2019-03-28T06:12:33.414Z,660.00
2019-03-28T06:13:33.411Z,656.00
2019-03-28T06:14:33.403Z,660.00
2019-03-28T06:15:33.402Z,660.00
2019-03-28T06:16:33.396Z,672.00
2019-03-28T06:17:33.390Z,684.00
2019-03-28T06:18:33.384Z,692.00
2019-03-28T06:19:33.389Z,700.00
2019-03-28T06:20:33.377Z,700.00
2019-03-28T06:21:33.371Z,700.00
2019-03-28T06:22:33.366Z,708.00
2019-03-28T06:23:33.383Z,724.00
2019-03-28T06:24:33.357Z,752.00
2019-03-28T06:25:33.363Z,776.00
2019-03-28T06:26:33.347Z,816.00
2019-03-28T06:27:33.440Z,860.00
2019-03-28T06:28:33.340Z,908.00
2019-03-28T06:29:33.337Z,960.00
2019-03-28T06:30:33.326Z,1012.00
2019-03-28T06:31:33.325Z,1056.00
2019-03-28T06:32:42.807Z,1084.00
2019-03-28T06:33:33.368Z,1100.00
2019-03-28T06:34:33.307Z,1116.00
2019-03-28T06:35:33.305Z,1144.00
2019-03-28T06:36:33.300Z,1184.00
2019-03-28T06:37:33.296Z,1240.00
2019-03-28T06:38:33.289Z,1300.00
2019-03-28T06:39:36.158Z,1368.00
2019-03-28T06:40:33.281Z,1444.00
2019-03-28T06:41:33.274Z,1544.00
2019-03-28T06:42:33.274Z,1676.00
2019-03-28T06:43:33.265Z,1844.00
2019-03-28T06:44:33.260Z,2028.00
2019-03-28T06:45:33.256Z,2208.00
2019-03-28T06:46:33.252Z,2384.00
2019-03-28T06:47:33.251Z,2552.00
2019-03-28T06:48:33.244Z,2720.00
2019-03-28T06:49:33.239Z,2864.00
2019-03-28T06:50:33.236Z,3004.00
2019-03-28T06:51:33.228Z,3116.00
2019-03-28T06:52:33.226Z,3176.00
2019-03-28T06:53:33.221Z,3184.00
2019-03-28T06:54:33.213Z,3152.00
2019-03-28T06:55:33.210Z,3112.00
2019-03-28T06:56:33.206Z,3088.00
2019-03-28T06:57:33.201Z,3052.00
2019-03-28T06:58:33.195Z,3020.00
2019-03-28T06:59:37.651Z,2988.00
2019-03-28T07:00:33.188Z,2964.00
2019-03-28T07:01:33.184Z,2912.00
2019-03-28T07:02:33.180Z,2844.00
2019-03-28T07:03:33.174Z,2796.00
2019-03-28T07:04:33.171Z,2780.00
2019-03-28T07:05:33.164Z,2792.00
2019-03-28T07:06:33.169Z,2868.00
2019-03-28T07:07:33.159Z,3012.00
2019-03-28T07:08:33.153Z,3208.00
2019-03-28T07:09:33.146Z,3444.00
2019-03-28T07:10:33.146Z,3732.00
2019-03-28T07:11:33.139Z,4012.00
2019-03-28T07:12:33.135Z,4184.00
2019-03-28T07:13:33.130Z,4144.00
2019-03-28T07:14:33.123Z,4000.00
2019-03-28T07:15:33.121Z,3864.00
2019-03-28T07:16:33.118Z,3808.00
2019-03-28T07:17:33.111Z,3848.00
2019-03-28T07:18:33.112Z,3928.00
2019-03-28T07:19:33.111Z,4048.00
2019-03-28T07:20:33.098Z,4104.00
2019-03-28T07:21:33.093Z,4016.00
2019-03-28T07:22:33.091Z,3872.00
2019-03-28T07:23:33.088Z,3748.00
2019-03-28T07:24:33.087Z,3616.00
2019-03-28T07:25:33.078Z,3532.00
2019-03-28T07:26:33.073Z,3508.00
2019-03-28T07:27:33.069Z,3508.00
2019-03-28T07:28:33.558Z,3540.00
2019-03-28T07:29:33.060Z,3600.00
2019-03-28T07:30:33.058Z,3672.00
2019-03-28T07:31:35.386Z,3776.00
2019-03-28T07:32:33.050Z,3908.00
2019-03-28T07:33:33.045Z,4052.00
2019-03-28T07:34:33.042Z,4248.00
2019-03-28T07:35:33.037Z,4436.00
2019-03-28T07:36:33.033Z,4588.00
2019-03-28T07:37:33.027Z,4632.00
2019-03-28T07:38:33.026Z,4636.00
2019-03-28T07:39:33.039Z,4588.00
2019-03-28T07:40:33.593Z,4512.00
2019-03-28T07:41:33.011Z,4480.00
2019-03-28T07:42:33.008Z,4528.00
2019-03-28T07:43:33.005Z,4664.00
2019-03-28T07:44:33.001Z,4824.00
2019-03-28T07:45:34.451Z,4968.00
2019-03-28T07:46:32.991Z,5004.00
2019-03-28T07:47:32.988Z,4976.00
2019-03-28T07:48:32.985Z,4976.00
2019-03-28T07:49:32.982Z,5020.00
2019-03-28T07:50:33.529Z,5128.00
2019-03-28T07:51:32.972Z,5268.00
2019-03-28T07:52:32.966Z,5460.00
2019-03-28T07:53:32.963Z,5608.00
2019-03-28T07:54:32.961Z,5680.00
2019-03-28T07:55:32.957Z,5628.00
2019-03-28T07:56:32.952Z,5520.00
2019-03-28T07:57:32.947Z,5380.00
2019-03-28T07:58:32.946Z,5200.00
2019-03-28T07:59:32.943Z,5016.00
2019-03-28T08:00:32.939Z,4904.00
2019-03-28T08:01:32.939Z,4896.00
2019-03-28T08:02:32.939Z,4984.00
2019-03-28T08:03:32.926Z,5156.00
2019-03-28T08:04:32.923Z,5384.00
2019-03-28T08:05:32.919Z,5588.00
2019-03-28T08:06:32.917Z,5744.00
2019-03-28T08:07:44.282Z,5896.00
2019-03-28T08:08:38.815Z,6108.00
2019-03-28T08:09:36.838Z,6432.00
2019-03-28T08:10:32.901Z,6840.00
2019-03-28T08:11:32.979Z,7300.00
2019-03-28T08:12:32.898Z,7732.00
2019-03-28T08:13:32.891Z,8012.00
2019-03-28T08:14:32.887Z,8188.00
2019-03-28T08:15:32.885Z,8484.00
2019-03-28T08:16:32.882Z,8952.00
2019-03-28T08:17:33.210Z,9568.00
2019-03-28T08:18:32.875Z,10216.00
2019-03-28T08:19:32.877Z,10720.00
2019-03-28T08:20:33.328Z,11076.00
2019-03-28T08:21:32.867Z,11280.00
2019-03-28T08:22:32.863Z,11488.00
2019-03-28T08:23:35.328Z,11788.00
2019-03-28T08:24:32.857Z,12156.00
2019-03-28T08:25:32.853Z,12604.00
2019-03-28T08:26:32.851Z,13024.00
2019-03-28T08:27:32.847Z,13256.00
2019-03-28T08:28:32.847Z,13224.00
2019-03-28T08:29:32.842Z,12824.00
2019-03-28T08:30:32.843Z,12252.00
2019-03-28T08:31:32.838Z,11712.00
2019-03-28T08:32:32.834Z,11344.00
2019-03-28T08:33:32.831Z,11140.00
2019-03-28T08:34:32.828Z,11064.00
2019-03-28T08:35:32.827Z,11064.00
2019-03-28T08:36:32.824Z,10988.00
2019-03-28T08:37:32.823Z,10904.00
2019-03-28T08:38:32.899Z,10912.00
2019-03-28T08:39:32.818Z,11148.00
2019-03-28T08:40:32.817Z,11644.00
2019-03-28T08:41:32.812Z,12380.00
2019-03-28T08:42:32.811Z,13148.00
2019-03-28T08:43:35.834Z,13764.00
2019-03-28T08:44:32.808Z,14128.00
2019-03-28T08:45:32.870Z,13604.00
2019-03-28T08:46:32.805Z,13024.00
2019-03-28T08:47:32.800Z,12836.00
2019-03-28T08:48:32.800Z,13268.00
2019-03-28T08:49:32.796Z,14144.00
2019-03-28T08:50:32.795Z,15652.00
2019-03-28T08:51:32.792Z,17728.00
2019-03-28T08:52:32.793Z,17664.00
2019-03-28T08:53:32.792Z,18240.00
2019-03-28T08:54:32.789Z,19264.00
2019-03-28T08:55:32.789Z,20896.00
2019-03-28T08:56:32.789Z,20448.00
2019-03-28T08:57:32.784Z,19872.00
2019-03-28T08:58:32.784Z,18976.00
2019-03-28T08:59:32.783Z,16092.00
2019-03-28T09:00:39.015Z,13836.00
2019-03-28T09:01:32.781Z,12672.00
2019-03-28T09:02:32.780Z,11956.00
2019-03-28T09:03:32.780Z,11708.00
2019-03-28T09:04:32.780Z,11836.00
2019-03-28T09:05:32.778Z,12096.00
2019-03-28T09:06:32.780Z,12112.00
2019-03-28T09:07:32.779Z,11416.00
2019-03-28T09:08:32.780Z,10440.00
2019-03-28T09:09:32.777Z,9632.00
2019-03-28T09:10:32.779Z,9264.00
2019-03-28T09:11:32.777Z,9428.00
2019-03-28T09:12:35.159Z,10084.00
2019-03-28T09:13:32.777Z,11184.00
2019-03-28T09:14:32.776Z,12592.00
2019-03-28T09:15:42.951Z,14048.00
2019-03-28T09:16:32.775Z,14864.00
2019-03-28T09:17:32.774Z,14644.00
2019-03-28T09:18:32.775Z,13436.00
2019-03-28T09:19:32.780Z,12564.00
2019-03-28T09:20:32.774Z,12256.00
2019-03-28T09:21:32.773Z,12596.00
2019-03-28T09:22:32.773Z,13480.00
2019-03-28T09:23:32.774Z,14848.00
2019-03-28T09:24:32.773Z,16016.00
2019-03-28T09:25:32.772Z,16800.00
2019-03-28T09:26:32.771Z,16832.00
2019-03-28T09:27:32.772Z,16232.00
2019-03-28T09:28:32.772Z,15384.00
2019-03-28T09:29:32.771Z,14836.00
2019-03-28T09:30:46.734Z,14616.00
2019-03-28T09:31:32.773Z,14532.00
2019-03-28T09:32:32.773Z,14484.00
2019-03-28T09:33:32.773Z,14064.00
2019-03-28T09:34:32.775Z,13456.00
2019-03-28T09:35:32.807Z,12944.00
2019-03-28T09:36:32.774Z,12576.00
2019-03-28T09:37:32.774Z,12304.00
2019-03-28T09:38:32.779Z,12100.00
2019-03-28T09:39:32.776Z,11936.00
2019-03-28T09:40:32.775Z,11740.00
2019-03-28T09:41:32.774Z,11472.00
2019-03-28T09:42:32.776Z,11188.00
2019-03-28T09:43:32.775Z,10956.00
2019-03-28T09:44:32.778Z,10800.00
2019-03-28T09:45:32.775Z,10816.00
2019-03-28T09:46:32.776Z,10956.00
2019-03-28T09:47:32.777Z,11252.00
2019-03-28T09:48:32.775Z,11676.00
2019-03-28T09:49:32.777Z,12100.00
2019-03-28T09:50:32.777Z,12372.00
2019-03-28T09:51:35.133Z,12488.00
2019-03-28T09:52:32.779Z,12532.00
2019-03-28T09:53:32.776Z,12572.00
2019-03-28T09:54:32.777Z,12672.00
2019-03-28T09:55:32.780Z,12776.00
2019-03-28T09:56:32.778Z,12716.00
2019-03-28T09:57:32.777Z,12544.00
2019-03-28T09:58:33.932Z,12324.00
2019-03-28T09:59:32.789Z,12112.00
2019-03-28T10:00:33.114Z,12004.00
2019-03-28T10:01:32.780Z,12132.00
2019-03-28T10:02:32.782Z,12472.00
2019-03-28T10:03:32.781Z,12948.00
2019-03-28T10:04:32.782Z,13496.00
2019-03-28T10:05:32.788Z,14008.00
2019-03-28T10:06:32.782Z,14400.00
2019-03-28T10:07:32.783Z,14392.00
2019-03-28T10:08:32.783Z,14008.00
2019-03-28T10:09:32.879Z,13788.00
2019-03-28T10:10:32.782Z,13660.00
2019-03-28T10:11:32.785Z,13616.00
2019-03-28T10:12:34.223Z,13684.00
2019-03-28T10:13:32.784Z,13684.00
2019-03-28T10:14:32.787Z,13220.00
2019-03-28T10:15:32.787Z,12836.00
2019-03-28T10:16:32.788Z,12568.00
2019-03-28T10:17:32.788Z,12444.00
2019-03-28T10:18:32.789Z,12492.00
2019-03-28T10:19:32.790Z,12528.00
2019-03-28T10:20:32.793Z,12456.00
2019-03-28T10:21:32.792Z,12312.00
2019-03-28T10:22:32.794Z,12144.00
2019-03-28T10:23:32.794Z,12012.00
2019-03-28T10:24:32.795Z,11944.00
2019-03-28T10:25:32.795Z,11856.00
2019-03-28T10:26:32.796Z,11736.00
2019-03-28T10:27:32.796Z,11720.00
2019-03-28T10:28:32.798Z,11804.00
2019-03-28T10:29:32.801Z,11804.00
2019-03-28T10:30:32.798Z,11844.00
2019-03-28T10:31:32.801Z,11588.00
2019-03-28T10:32:32.802Z,11328.00
2019-03-28T10:33:32.803Z,11012.00
2019-03-28T10:34:32.804Z,10692.00
2019-03-28T10:35:32.806Z,10388.00
2019-03-28T10:36:32.805Z,10092.00
2019-03-28T10:37:32.806Z,9872.00
2019-03-28T10:38:32.805Z,9748.00
2019-03-28T10:39:32.809Z,9696.00
2019-03-28T10:40:32.810Z,9716.00
2019-03-28T10:41:32.809Z,9780.00
2019-03-28T10:42:32.810Z,9864.00
2019-03-28T10:43:32.811Z,9940.00
2019-03-28T10:44:32.812Z,9876.00
2019-03-28T10:45:33.718Z,9676.00
2019-03-28T10:46:32.814Z,9460.00
2019-03-28T10:47:32.814Z,9312.00
2019-03-28T10:48:32.816Z,9240.00
2019-03-28T10:49:32.825Z,9264.00
2019-03-28T10:50:41.315Z,9336.00
2019-03-28T10:51:32.817Z,9452.00
2019-03-28T10:52:32.817Z,9516.00
2019-03-28T10:53:32.819Z,9472.00
2019-03-28T10:54:32.820Z,9312.00
2019-03-28T10:55:32.819Z,9100.00
2019-03-28T10:56:32.820Z,8948.00
2019-03-28T10:57:32.841Z,8860.00
2019-03-28T10:58:34.971Z,8800.00
2019-03-28T10:59:32.820Z,8856.00
2019-03-28T11:00:32.822Z,8948.00
2019-03-28T11:01:47.542Z,9040.00
2019-03-28T11:02:32.822Z,9092.00
2019-03-28T11:03:32.821Z,9012.00
2019-03-28T11:04:32.825Z,8968.00
2019-03-28T11:05:32.823Z,8948.00
2019-03-28T11:06:32.822Z,9032.00
2019-03-28T11:07:32.824Z,9156.00
2019-03-28T11:08:35.031Z,9288.00
2019-03-28T11:09:32.827Z,9436.00
2019-03-28T11:10:32.830Z,9492.00
2019-03-28T11:11:32.828Z,9496.00
2019-03-28T11:12:32.827Z,9416.00
2019-03-28T11:13:32.829Z,9320.00
2019-03-28T11:14:32.825Z,9316.00
2019-03-28T11:15:32.827Z,9368.00
2019-03-28T11:16:32.831Z,9416.00
2019-03-28T11:17:32.827Z,9356.00
2019-03-28T11:18:32.829Z,9312.00
2019-03-28T11:19:32.827Z,9248.00
2019-03-28T11:20:32.833Z,9248.00
2019-03-28T11:21:34.290Z,9272.00
2019-03-28T11:22:32.830Z,9296.00
2019-03-28T11:23:32.876Z,9304.00
2019-03-28T11:24:32.835Z,9360.00
2019-03-28T11:25:32.828Z,9400.00
2019-03-28T11:26:32.829Z,9396.00
2019-03-28T11:27:32.832Z,9364.00
2019-03-28T11:28:32.859Z,9316.00
2019-03-28T11:29:33.741Z,9300.00
2019-03-28T11:30:32.831Z,9324.00
2019-03-28T11:31:45.571Z,9348.00
2019-03-28T11:32:35.749Z,9384.00
2019-03-28T11:33:32.832Z,9428.00
2019-03-28T11:34:32.832Z,9460.00
2019-03-28T11:35:32.900Z,9416.00
2019-03-28T11:36:32.832Z,9388.00
2019-03-28T11:37:32.846Z,9288.00
2019-03-28T11:38:32.831Z,9188.00
2019-03-28T11:39:32.832Z,9152.00
2019-03-28T11:40:32.835Z,9156.00
2019-03-28T11:41:32.837Z,9140.00
2019-03-28T11:42:32.832Z,9112.00
2019-03-28T11:43:32.836Z,9064.00
2019-03-28T11:44:32.837Z,9000.00
2019-03-28T11:45:32.838Z,8920.00
2019-03-28T11:46:32.834Z,8752.00
2019-03-28T11:47:32.836Z,8576.00
2019-03-28T11:48:32.835Z,8456.00
2019-03-28T11:49:32.837Z,8372.00
2019-03-28T11:50:32.836Z,8284.00
2019-03-28T11:51:36.030Z,8232.00
2019-03-28T11:52:32.840Z,8188.00
2019-03-28T11:53:32.868Z,8148.00
2019-03-28T11:54:32.839Z,8144.00
2019-03-28T11:55:32.837Z,8196.00
2019-03-28T11:56:32.840Z,8204.00
2019-03-28T11:57:32.836Z,8184.00
2019-03-28T11:58:32.836Z,8156.00
2019-03-28T11:59:33.213Z,8068.00
2019-03-28T12:00:32.840Z,7976.00
2019-03-28T12:01:32.838Z,7928.00
2019-03-28T12:02:32.839Z,7916.00
2019-03-28T12:03:32.838Z,7932.00
2019-03-28T12:04:32.840Z,7936.00
2019-03-28T12:05:32.840Z,7840.00
2019-03-28T12:06:32.839Z,7620.00
2019-03-28T12:07:32.839Z,7344.00
2019-03-28T12:08:32.840Z,7084.00
2019-03-28T12:09:32.839Z,6928.00
2019-03-28T12:10:32.846Z,6852.00
2019-03-28T12:11:32.846Z,6840.00
2019-03-28T12:12:32.840Z,6772.00
2019-03-28T12:13:44.166Z,6660.00
2019-03-28T12:14:32.840Z,6464.00
2019-03-28T12:15:32.841Z,6180.00
2019-03-28T12:16:32.845Z,5908.00
2019-03-28T12:17:32.840Z,5700.00
2019-03-28T12:18:32.841Z,5540.00
2019-03-28T12:19:32.842Z,5412.00
2019-03-28T12:20:32.846Z,5316.00
2019-03-28T12:21:32.842Z,5240.00
2019-03-28T12:22:32.840Z,5184.00
2019-03-28T12:23:32.840Z,5188.00
2019-03-28T12:24:32.841Z,5264.00
2019-03-28T12:25:32.840Z,5372.00
2019-03-28T12:26:32.840Z,5560.00
2019-03-28T12:27:32.841Z,5980.00
2019-03-28T12:28:32.841Z,6956.00
2019-03-28T12:29:35.692Z,8356.00
2019-03-28T12:30:32.840Z,8440.00
2019-03-28T12:31:33.380Z,9448.00
2019-03-28T12:32:32.842Z,7956.00